createdAt,value
2023-01-26T00:01:25.460Z,26.13
2023-01-26T00:03:52.544Z,20.08
2023-01-26T00:06:21.303Z,19.80
2023-01-26T00:08:50.583Z,20.65
2023-01-26T00:11:19.974Z,17.88
2023-01-26T00:13:50.392Z,18.63
2023-01-26T00:16:17.613Z,23.95
2023-01-26T00:18:44.642Z,18.77
2023-01-26T00:21:14.415Z,25.75
2023-01-26T00:23:41.762Z,24.02
2023-01-26T00:26:13.343Z,22.42
2023-01-26T00:28:40.440Z,21.98
2023-01-26T00:31:12.339Z,22.98
2023-01-26T00:33:39.796Z,19.95
2023-01-26T00:36:07.349Z,21.50
2023-01-26T00:38:34.900Z,21.90
2023-01-26T00:41:02.089Z,20.98
2023-01-26T00:43:29.101Z,19.90
2023-01-26T00:45:56.255Z,19.33
2023-01-26T00:48:24.792Z,21.98
2023-01-26T00:50:53.336Z,20.40
2023-01-26T00:53:20.409Z,19.10
2023-01-26T00:55:47.594Z,21.60
2023-01-26T00:58:14.531Z,19.83
2023-01-26T01:00:41.624Z,19.27
2023-01-26T01:03:08.817Z,21.80
2023-01-26T01:05:35.942Z,23.67
2023-01-26T01:08:03.036Z,17.52
2023-01-26T01:10:30.972Z,22.98
2023-01-26T01:12:58.018Z,21.45
2023-01-26T01:15:25.552Z,21.45
2023-01-26T01:17:53.092Z,18.67
2023-01-26T01:20:20.330Z,20.40
2023-01-26T01:22:47.406Z,18.48
2023-01-26T01:25:14.514Z,18.65
2023-01-26T01:27:41.854Z,22.88
2023-01-26T01:30:10.106Z,18.63
2023-01-26T01:32:39.777Z,21.00
2023-01-26T01:35:07.887Z,18.25
2023-01-26T01:37:36.781Z,18.38
2023-01-26T01:40:04.047Z,20.52
2023-01-26T01:42:33.141Z,18.02
2023-01-26T01:45:35.869Z,21.42
2023-01-26T01:48:05.223Z,18.80
2023-01-26T01:50:39.693Z,16.88
2023-01-26T01:53:12.010Z,18.77
2023-01-26T01:55:41.425Z,22.05
2023-01-26T01:58:09.466Z,15.02
2023-01-26T02:00:36.562Z,16.25
2023-01-26T02:03:14.753Z,16.35
2023-01-26T02:05:49.324Z,17.80
2023-01-26T02:08:19.315Z,17.80
2023-01-26T02:10:50.295Z,16.92
2023-01-26T02:13:19.032Z,17.80
2023-01-26T02:15:46.799Z,18.77
2023-01-26T02:18:13.974Z,18.08
2023-01-26T02:20:40.962Z,16.65
2023-01-26T02:23:30.197Z,15.45
2023-01-26T02:26:11.374Z,13.57
2023-01-26T02:28:39.819Z,17.70
2023-01-26T02:31:08.241Z,17.27
2023-01-26T02:33:36.291Z,15.80
2023-01-26T02:36:06.451Z,20.33
2023-01-26T02:38:43.838Z,16.92
2023-01-26T02:41:36.693Z,16.98
2023-01-26T02:44:06.892Z,15.73
2023-01-26T02:46:34.502Z,15.82
2023-01-26T02:49:19.981Z,13.00
2023-01-26T02:51:47.309Z,16.10
2023-01-26T02:54:35.190Z,17.25
2023-01-26T02:57:03.009Z,14.60
2023-01-26T02:59:30.124Z,17.05
2023-01-26T03:01:58.148Z,15.20
2023-01-26T03:04:25.254Z,15.90
2023-01-26T03:06:52.776Z,14.70
2023-01-26T03:09:19.752Z,17.17
2023-01-26T03:11:47.983Z,18.15
2023-01-26T03:14:17.051Z,14.32
2023-01-26T03:16:44.218Z,14.57
2023-01-26T03:19:34.802Z,16.40
2023-01-26T03:22:28.786Z,15.25
2023-01-26T03:25:15.617Z,14.18
2023-01-26T03:27:46.519Z,11.43
2023-01-26T03:30:17.153Z,13.95
2023-01-26T03:32:45.656Z,19.02
2023-01-26T03:35:15.534Z,13.00
2023-01-26T03:37:44.156Z,15.00
2023-01-26T03:40:36.518Z,13.77
2023-01-26T03:43:28.147Z,12.68
2023-01-26T03:46:14.474Z,17.02
2023-01-26T03:49:00.771Z,13.55
2023-01-26T03:51:49.622Z,13.52
2023-01-26T03:54:35.417Z,12.88
2023-01-26T03:57:03.594Z,14.55
2023-01-26T03:59:39.341Z,12.10
2023-01-26T04:02:31.560Z,13.02
2023-01-26T04:05:18.393Z,16.50
2023-01-26T04:08:07.258Z,13.48
2023-01-26T04:10:34.481Z,12.88
2023-01-26T04:13:22.642Z,12.43
2023-01-26T04:16:17.415Z,12.43
2023-01-26T04:19:03.087Z,11.18
2023-01-26T04:21:33.291Z,10.65
2023-01-26T04:26:37.547Z,10.52
2023-01-26T04:29:11.496Z,15.20
2023-01-26T04:31:39.589Z,12.73
2023-01-26T04:34:11.508Z,14.23
2023-01-26T04:39:05.997Z,12.32
2023-01-26T04:41:33.209Z,11.70
2023-01-26T04:44:05.222Z,9.98
2023-01-26T04:46:33.365Z,9.18
2023-01-26T04:49:04.858Z,11.73
2023-01-26T04:51:32.211Z,13.10
2023-01-26T04:53:59.336Z,10.68
2023-01-26T04:56:33.256Z,10.15
2023-01-26T04:59:03.646Z,10.15
2023-01-26T05:01:34.502Z,9.75
2023-01-26T05:04:05.729Z,9.45
2023-01-26T05:06:34.021Z,9.73
2023-01-26T05:09:00.981Z,10.50
2023-01-26T05:11:28.815Z,8.57
2023-01-26T05:14:16.100Z,7.28
2023-01-26T05:17:00.592Z,8.20
2023-01-26T05:19:48.963Z,7.82
2023-01-26T05:22:31.806Z,10.25
2023-01-26T05:25:17.646Z,9.48
2023-01-26T05:27:55.010Z,8.90
2023-01-26T05:30:22.318Z,10.02
2023-01-26T05:32:50.606Z,9.05
2023-01-26T05:35:17.746Z,6.72
2023-01-26T05:37:45.913Z,9.25
2023-01-26T05:40:14.397Z,8.38
2023-01-26T05:42:43.969Z,9.15
2023-01-26T05:45:37.268Z,7.38
2023-01-26T05:48:05.753Z,8.98
2023-01-26T05:50:33.045Z,9.48
2023-01-26T05:53:29.387Z,10.20
2023-01-26T05:55:56.668Z,8.80
2023-01-26T05:58:26.679Z,8.50
2023-01-26T06:00:54.398Z,7.10
2023-01-26T06:03:26.913Z,10.35
2023-01-26T06:05:55.366Z,9.02
2023-01-26T06:08:46.049Z,13.18
2023-01-26T06:11:32.905Z,8.05
2023-01-26T06:14:22.568Z,12.60
2023-01-26T06:16:56.875Z,7.47
2023-01-26T06:19:24.858Z,9.68
2023-01-26T06:22:07.648Z,9.40
2023-01-26T06:24:36.466Z,9.00
2023-01-26T06:27:07.123Z,10.90
2023-01-26T06:29:44.828Z,8.45
2023-01-26T06:32:13.871Z,10.57
2023-01-26T06:34:48.257Z,11.30
2023-01-26T06:37:15.434Z,10.00
2023-01-26T06:39:44.427Z,10.30
2023-01-26T06:42:13.045Z,10.75
2023-01-26T06:44:40.274Z,11.05
2023-01-26T06:47:08.009Z,11.43
2023-01-26T06:49:36.172Z,10.45
2023-01-26T06:52:33.582Z,9.23
2023-01-26T06:55:36.001Z,8.20
2023-01-26T06:58:21.987Z,8.70
2023-01-26T07:01:23.297Z,9.05
2023-01-26T07:03:52.037Z,9.07
2023-01-26T07:06:19.372Z,9.88
2023-01-26T07:08:49.571Z,10.80
2023-01-26T07:11:17.458Z,11.27
2023-01-26T07:13:44.613Z,10.30
2023-01-26T07:16:16.664Z,8.75
2023-01-26T07:18:43.840Z,9.13
2023-01-26T07:21:16.444Z,9.63
2023-01-26T07:23:48.553Z,8.10
2023-01-26T07:26:23.969Z,11.40
2023-01-26T07:28:51.020Z,9.02
2023-01-26T07:31:18.459Z,7.03
2023-01-26T07:33:45.736Z,9.02
2023-01-26T07:36:12.969Z,10.60
2023-01-26T07:38:40.033Z,9.23
2023-01-26T07:41:10.036Z,9.85
2023-01-26T07:43:38.148Z,9.70
2023-01-26T07:46:10.805Z,7.97
2023-01-26T07:48:38.716Z,11.73
2023-01-26T07:51:08.495Z,7.60
2023-01-26T07:53:39.470Z,10.07
2023-01-26T07:56:16.654Z,9.43
2023-01-26T07:58:43.690Z,8.73
2023-01-26T08:01:21.502Z,10.20
2023-01-26T08:03:52.078Z,11.38
2023-01-26T08:06:19.743Z,9.35
2023-01-26T08:08:51.116Z,8.48
2023-01-26T08:11:20.575Z,9.07
2023-01-26T08:13:47.747Z,8.73
2023-01-26T08:16:15.169Z,10.02
2023-01-26T08:18:44.764Z,9.07
2023-01-26T08:21:13.354Z,8.48
2023-01-26T08:23:40.702Z,11.90
2023-01-26T08:26:13.539Z,9.43
2023-01-26T08:28:41.378Z,8.52
2023-01-26T08:31:20.761Z,9.60
2023-01-26T08:33:53.378Z,10.88
2023-01-26T08:36:22.563Z,9.90
2023-01-26T08:38:53.951Z,9.07
2023-01-26T08:41:21.009Z,12.43
2023-01-26T08:43:48.602Z,11.50
2023-01-26T08:46:15.872Z,9.45
2023-01-26T08:48:43.159Z,11.10
2023-01-26T08:51:10.497Z,11.10
2023-01-26T08:53:38.179Z,10.52
2023-01-26T08:56:08.120Z,10.63
2023-01-26T08:58:35.718Z,10.07
2023-01-26T09:01:12.159Z,10.55
2023-01-26T09:03:39.746Z,11.15
2023-01-26T09:06:08.733Z,11.27
2023-01-26T09:08:36.700Z,12.68
2023-01-26T09:11:06.602Z,9.98
2023-01-26T09:13:34.540Z,10.65
2023-01-26T09:16:12.770Z,9.13
2023-01-26T09:18:42.669Z,12.57
2023-01-26T09:21:09.980Z,10.95
2023-01-26T09:23:37.628Z,13.23
2023-01-26T09:26:04.684Z,10.88
2023-01-26T09:28:31.724Z,10.93
2023-01-26T09:31:04.118Z,9.50
2023-01-26T09:33:34.056Z,11.63
2023-01-26T09:36:06.280Z,10.43
2023-01-26T09:38:33.767Z,10.38
2023-01-26T09:41:02.703Z,9.95
2023-01-26T09:43:43.650Z,11.10
2023-01-26T09:46:55.808Z,8.73
2023-01-26T09:49:46.921Z,10.35
2023-01-26T09:52:48.404Z,9.40
2023-01-26T09:55:19.555Z,9.32
2023-01-26T09:58:01.703Z,9.80
2023-01-26T10:00:36.632Z,8.80
2023-01-26T10:03:41.578Z,10.00
2023-01-26T10:06:28.527Z,8.13
2023-01-26T10:09:17.240Z,8.23
2023-01-26T10:11:49.434Z,7.72
2023-01-26T10:14:33.489Z,9.25
2023-01-26T10:17:03.911Z,7.55
2023-01-26T10:19:35.978Z,7.10
2023-01-26T10:22:11.680Z,7.90
2023-01-26T10:27:58.086Z,9.25
2023-01-26T10:30:25.798Z,7.47
2023-01-26T10:32:53.442Z,5.70
2023-01-26T10:35:25.819Z,6.80
2023-01-26T10:37:53.319Z,6.53
2023-01-26T10:40:21.280Z,6.20
2023-01-26T10:42:59.356Z,7.10
2023-01-26T10:45:32.149Z,6.07
2023-01-26T10:48:27.275Z,5.35
2023-01-26T10:50:54.401Z,5.03
2023-01-26T10:53:29.625Z,7.20
2023-01-26T10:56:13.533Z,5.63
2023-01-26T10:58:43.473Z,4.55
2023-01-26T11:01:12.515Z,8.25
2023-01-26T11:03:40.250Z,6.10
2023-01-26T11:06:11.689Z,4.07
2023-01-26T11:08:39.554Z,5.43
2023-01-26T11:11:22.045Z,6.43
2023-01-26T11:14:10.385Z,5.22
2023-01-26T11:16:37.815Z,4.50
2023-01-26T11:19:32.666Z,3.50
2023-01-26T11:22:37.549Z,3.47
2023-01-26T11:25:26.607Z,3.67
2023-01-26T11:28:25.478Z,2.97
2023-01-26T11:31:01.497Z,2.38
2023-01-26T11:33:46.693Z,3.05
2023-01-26T11:36:22.325Z,3.10
2023-01-26T11:39:17.945Z,2.90
2023-01-26T11:42:06.015Z,2.22
2023-01-26T11:44:47.978Z,2.35
2023-01-26T11:47:56.296Z,3.03
2023-01-26T11:50:33.204Z,3.38
2023-01-26T11:53:20.374Z,2.15
2023-01-26T11:56:17.136Z,3.42
2023-01-26T11:59:03.264Z,3.13
2023-01-26T12:01:43.561Z,2.05
2023-01-26T12:04:19.136Z,3.15
2023-01-26T12:06:53.665Z,2.95
2023-01-26T12:09:32.725Z,4.93
2023-01-26T12:12:37.388Z,2.35
2023-01-26T12:15:23.912Z,3.83
2023-01-26T12:18:00.353Z,2.33
2023-01-26T12:20:45.820Z,2.25
2023-01-26T12:23:38.497Z,3.22
2023-01-26T12:26:16.185Z,1.63
2023-01-26T12:28:51.807Z,4.20
2023-01-26T12:31:34.374Z,2.28
2023-01-26T12:34:01.647Z,2.70
2023-01-26T12:37:19.516Z,2.33
2023-01-26T12:40:01.617Z,2.08
2023-01-26T12:42:48.703Z,1.85
2023-01-26T12:45:20.758Z,2.28
2023-01-26T12:47:50.164Z,2.60
2023-01-26T12:50:26.358Z,1.60
2023-01-26T12:53:02.246Z,2.53
2023-01-26T12:55:36.147Z,1.73
2023-01-26T12:58:09.997Z,1.60
2023-01-26T13:00:38.952Z,1.85
2023-01-26T13:03:22.753Z,1.90
2023-01-26T13:05:58.721Z,1.90
2023-01-26T13:08:31.508Z,2.95
2023-01-26T13:11:00.852Z,2.28
2023-01-26T13:13:36.123Z,2.13
2023-01-26T13:16:15.576Z,2.65
2023-01-26T13:18:49.788Z,1.90
2023-01-26T13:21:38.512Z,1.42
2023-01-26T13:24:34.276Z,3.45
2023-01-26T13:27:01.393Z,1.98
2023-01-26T13:29:32.825Z,2.03
2023-01-26T13:32:19.765Z,1.92
2023-01-26T13:35:03.096Z,1.80
2023-01-26T13:37:42.969Z,2.20
2023-01-26T13:40:35.339Z,1.42
2023-01-26T13:43:25.686Z,1.20
2023-01-26T13:46:24.687Z,1.63
2023-01-26T13:48:56.167Z,1.67
2023-01-26T13:51:30.102Z,1.70
2023-01-26T13:54:14.371Z,2.22
2023-01-26T13:57:06.874Z,2.10
2023-01-26T13:59:34.276Z,1.40
2023-01-26T14:02:02.134Z,2.10
2023-01-26T14:04:31.451Z,4.43
2023-01-26T14:07:14.519Z,1.60
2023-01-26T14:09:50.769Z,1.50
2023-01-26T14:12:27.645Z,1.85
2023-01-26T14:15:00.328Z,1.20
2023-01-26T14:17:33.358Z,2.08
2023-01-26T14:20:03.688Z,1.67
2023-01-26T14:22:30.817Z,1.33
2023-01-26T14:24:57.959Z,1.08
2023-01-26T14:27:37.656Z,1.15
2023-01-26T14:30:26.891Z,1.10
2023-01-26T14:33:07.830Z,2.20
2023-01-26T14:35:38.155Z,1.23
2023-01-26T14:38:13.805Z,2.38
2023-01-26T14:40:45.731Z,1.27
2023-01-26T14:43:14.789Z,1.27
2023-01-26T14:45:49.359Z,1.42
2023-01-26T14:48:20.639Z,1.08
2023-01-26T14:50:48.739Z,1.30
2023-01-26T14:53:23.819Z,1.67
2023-01-26T14:55:52.116Z,1.48
2023-01-26T14:58:27.442Z,1.98
2023-01-26T15:00:58.257Z,1.10
2023-01-26T15:03:33.184Z,1.30
2023-01-26T15:06:06.070Z,1.58
2023-01-26T15:08:39.107Z,1.77
2023-01-26T15:11:28.078Z,0.98
2023-01-26T15:13:56.086Z,0.75
2023-01-26T15:16:25.249Z,1.25
2023-01-26T15:19:01.067Z,0.80
2023-01-26T15:21:43.748Z,1.52
2023-01-26T15:24:14.742Z,1.30
2023-01-26T15:26:44.541Z,1.30
2023-01-26T15:29:30.819Z,1.00
2023-01-26T15:31:58.883Z,1.10
2023-01-26T15:34:42.112Z,1.77
2023-01-26T15:37:29.232Z,2.47
2023-01-26T15:39:59.211Z,0.77
2023-01-26T15:42:30.182Z,1.50
2023-01-26T15:44:57.727Z,1.40
2023-01-26T15:47:25.148Z,1.65
2023-01-26T15:49:52.304Z,1.40
2023-01-26T15:52:30.497Z,2.28
2023-01-26T15:54:57.905Z,1.50
2023-01-26T15:57:24.863Z,1.52
2023-01-26T15:59:52.060Z,2.80
2023-01-26T16:02:20.891Z,1.00
2023-01-26T16:04:48.244Z,1.02
2023-01-26T16:07:17.982Z,1.25
2023-01-26T16:09:45.164Z,2.70
2023-01-26T16:12:36.236Z,2.33
2023-01-26T16:15:11.313Z,1.30
2023-01-26T16:17:38.547Z,1.33
2023-01-26T16:20:06.068Z,1.73
2023-01-26T16:22:51.469Z,1.52
2023-01-26T16:25:33.497Z,0.93
2023-01-26T16:30:27.678Z,1.10
2023-01-26T16:32:55.072Z,1.40
2023-01-26T16:35:23.993Z,0.90
2023-01-26T16:37:51.295Z,2.47
2023-01-26T16:40:19.634Z,1.58
2023-01-26T16:43:08.123Z,1.33
2023-01-26T16:45:35.229Z,1.35
2023-01-26T16:48:02.237Z,0.82
2023-01-26T16:50:31.548Z,1.75
2023-01-26T16:56:20.305Z,0.93
2023-01-26T16:58:47.635Z,1.10
2023-01-26T17:01:20.661Z,1.52
2023-01-26T17:04:41.516Z,1.15
2023-01-26T17:07:08.625Z,1.35
2023-01-26T17:09:40.031Z,0.90
2023-01-26T17:12:07.700Z,0.80
2023-01-26T17:14:34.771Z,0.82
2023-01-26T17:17:01.924Z,1.02
2023-01-26T17:19:28.920Z,0.90
2023-01-26T17:21:55.957Z,1.20
2023-01-26T17:24:23.142Z,0.77
2023-01-26T17:26:50.240Z,0.98
2023-01-26T17:29:17.215Z,1.90
2023-01-26T17:31:44.419Z,1.02
2023-01-26T17:34:11.506Z,1.05
2023-01-26T17:36:38.956Z,1.30
2023-01-26T17:39:06.245Z,1.48
2023-01-26T17:41:33.230Z,1.33
2023-01-26T17:44:02.990Z,1.70
2023-01-26T17:46:30.014Z,2.22
2023-01-26T17:48:57.016Z,1.42
2023-01-26T17:51:24.199Z,1.75
2023-01-26T17:53:51.283Z,1.30
2023-01-26T17:56:20.898Z,1.98
2023-01-26T17:58:50.430Z,1.40
2023-01-26T18:01:18.460Z,2.42
2023-01-26T18:03:46.230Z,1.10
2023-01-26T18:06:13.478Z,1.17
2023-01-26T18:08:41.106Z,1.00
2023-01-26T18:11:10.860Z,1.30
2023-01-26T18:13:38.341Z,1.55
2023-01-26T18:16:07.051Z,2.08
2023-01-26T18:18:34.555Z,2.28
2023-01-26T18:21:13.507Z,1.13
2023-01-26T18:23:43.282Z,1.08
2023-01-26T18:26:10.446Z,1.67
2023-01-26T18:28:39.220Z,1.65
2023-01-26T18:31:14.719Z,1.27
2023-01-26T18:33:41.901Z,1.45
2023-01-26T18:36:11.983Z,1.30
2023-01-26T18:38:42.144Z,1.23
2023-01-26T18:41:14.442Z,1.40
2023-01-26T18:43:48.348Z,1.20
2023-01-26T18:46:15.595Z,1.15
2023-01-26T18:48:42.768Z,1.30
2023-01-26T18:51:10.228Z,1.90
2023-01-26T18:53:41.044Z,1.33
2023-01-26T18:56:11.571Z,2.20
2023-01-26T18:58:40.191Z,1.90
2023-01-26T19:01:10.616Z,1.25
2023-01-26T19:03:38.420Z,1.88
2023-01-26T19:06:06.238Z,1.48
2023-01-26T19:08:34.564Z,1.52
2023-01-26T19:11:07.034Z,1.77
2023-01-26T19:13:34.625Z,1.60
2023-01-26T19:16:01.724Z,1.48
2023-01-26T19:18:29.815Z,1.23
2023-01-26T19:21:02.907Z,1.65
2023-01-26T19:23:30.190Z,1.40
2023-01-26T19:25:57.464Z,1.45
2023-01-26T19:28:24.536Z,1.60
2023-01-26T19:30:51.683Z,1.40
2023-01-26T19:33:24.445Z,1.75
2023-01-26T19:35:52.594Z,1.42
2023-01-26T19:38:20.467Z,1.83
2023-01-26T19:40:49.599Z,1.65
2023-01-26T19:43:19.099Z,1.50
2023-01-26T19:45:50.741Z,1.30
2023-01-26T19:48:17.985Z,1.15
2023-01-26T19:50:45.043Z,2.97
2023-01-26T19:53:12.092Z,1.85
2023-01-26T19:55:39.268Z,2.97
2023-01-26T19:58:06.315Z,1.20
2023-01-26T20:00:33.254Z,2.90
2023-01-26T20:03:00.806Z,2.10
2023-01-26T20:05:27.895Z,1.80
2023-01-26T20:07:54.920Z,2.47
2023-01-26T20:10:22.023Z,2.95
2023-01-26T20:12:49.251Z,1.33
2023-01-26T20:15:16.243Z,1.50
2023-01-26T20:17:43.333Z,1.70
2023-01-26T20:20:12.489Z,1.50
2023-01-26T20:22:40.321Z,1.70
2023-01-26T20:25:11.612Z,1.85
2023-01-26T20:27:38.922Z,1.30
2023-01-26T20:30:06.769Z,1.70
2023-01-26T20:32:34.804Z,2.15
2023-01-26T20:35:02.477Z,1.42
2023-01-26T20:37:32.463Z,1.83
2023-01-26T20:39:59.887Z,1.80
2023-01-26T20:42:27.745Z,2.90
2023-01-26T20:44:55.631Z,1.90
2023-01-26T20:47:22.980Z,2.25
2023-01-26T20:49:50.872Z,2.00
2023-01-26T20:52:17.909Z,1.40
2023-01-26T20:54:45.227Z,2.30
2023-01-26T20:57:12.286Z,2.40
2023-01-26T20:59:40.241Z,1.90
2023-01-26T21:02:12.098Z,1.58
2023-01-26T21:07:08.812Z,1.95
2023-01-26T21:09:36.087Z,1.63
2023-01-26T21:12:03.240Z,1.40
2023-01-26T21:14:30.243Z,1.27
2023-01-26T21:16:57.470Z,1.70
2023-01-26T21:19:24.534Z,2.42
2023-01-26T21:21:51.799Z,1.80
2023-01-26T21:24:19.022Z,3.17
2023-01-26T21:26:48.987Z,2.10
2023-01-26T21:29:17.145Z,2.72
2023-01-26T21:31:48.902Z,2.60
2023-01-26T21:36:43.108Z,1.35
2023-01-26T21:39:14.975Z,1.92
2023-01-26T21:41:56.979Z,2.28
2023-01-26T21:47:03.993Z,1.98
2023-01-26T21:49:31.165Z,1.90
2023-01-26T21:52:17.372Z,1.23
2023-01-26T21:54:44.502Z,2.38
2023-01-26T21:57:32.138Z,3.05
2023-01-26T21:59:59.597Z,2.15
2023-01-26T22:02:26.700Z,2.22
2023-01-26T22:04:53.867Z,1.48
2023-01-26T22:07:21.683Z,1.70
2023-01-26T22:09:48.971Z,1.80
2023-01-26T22:12:16.630Z,2.55
2023-01-26T22:14:43.752Z,1.90
2023-01-26T22:17:10.664Z,1.73
2023-01-26T22:19:37.792Z,1.90
2023-01-26T22:22:05.041Z,1.50
2023-01-26T22:24:32.142Z,2.15
2023-01-26T22:26:59.123Z,2.83
2023-01-26T22:29:26.185Z,3.08
2023-01-26T22:31:53.369Z,2.88
2023-01-26T22:34:20.421Z,1.70
2023-01-26T22:36:47.789Z,2.05
2023-01-26T22:39:14.682Z,1.75
2023-01-26T22:41:41.690Z,1.90
2023-01-26T22:44:08.886Z,1.95
2023-01-26T22:46:36.902Z,1.52
2023-01-26T22:49:04.997Z,2.08
2023-01-26T22:51:37.304Z,3.35
2023-01-26T22:54:05.310Z,1.52
2023-01-26T22:56:32.490Z,1.63
2023-01-26T22:59:00.865Z,1.70
2023-01-26T23:01:32.992Z,1.77
2023-01-26T23:04:00.782Z,1.83
2023-01-26T23:06:28.427Z,2.80
2023-01-26T23:08:55.724Z,1.70
2023-01-26T23:11:28.308Z,1.50
2023-01-26T23:13:56.662Z,1.48
2023-01-26T23:16:25.006Z,2.70
2023-01-26T23:18:53.977Z,3.40
2023-01-26T23:21:21.380Z,2.58
2023-01-26T23:23:48.631Z,2.60
2023-01-26T23:26:16.080Z,2.85
2023-01-26T23:28:44.579Z,3.15
2023-01-26T23:31:13.457Z,1.40
2023-01-26T23:33:41.024Z,1.73
2023-01-26T23:36:10.149Z,2.90
2023-01-26T23:38:37.576Z,2.35
2023-01-26T23:41:08.585Z,3.95
2023-01-26T23:43:35.866Z,2.33
2023-01-26T23:46:03.378Z,1.90
2023-01-26T23:48:30.771Z,3.35
2023-01-26T23:51:00.086Z,1.88
2023-01-26T23:53:28.299Z,1.40
2023-01-26T23:55:55.822Z,2.15
2023-01-26T23:58:22.842Z,2.55
